This is the latest recevied weather packets stored in our database for station/object K7VLL. If no packets are shown the sender has not sent any weather packets the latest 10 day(s).
| Time | Temp. | Humidity | Pressure | Rain* | Wind** | Luminosity | Snow |
|---|---|---|---|---|---|---|---|
| 1777839452 | 31.11° C | 18% | 1087.4 hPa | 0 mm | - | 266 W/m² | - |
| 1777837651 | 30.56° C | 18% | 1088 hPa | 0 mm | - | 257 W/m² | - |
| 1777835851 | 29.44° C | 23% | 1088.7 hPa | 0 mm | - | 310 W/m² | - |
| 1777834047 | 28.33° C | 25% | 1089 hPa | 0 mm | - | 234 W/m² | - |
| 1777832241 | 28.33° C | 24% | 1089.2 hPa | 0 mm | - | 221 W/m² | - |
| 1777830440 | 27.78° C | 26% | 1089.5 hPa | 0 mm | - | 214 W/m² | - |
| 1777828637 | 27.22° C | 26% | 1090 hPa | 0 mm | - | 202 W/m² | - |
| 1777826835 | 27.78° C | 26% | 1090.3 hPa | 0 mm | - | 204 W/m² | - |
| 1777825030 | 26.67° C | 26% | 1090.3 hPa | 0 mm | - | 199 W/m² | - |
| 1777823227 | 26.11° C | 28% | 1090.1 hPa | 0 mm | - | 169 W/m² | - |
| 1777821424 | 25.56° C | 29% | 1089.9 hPa | 0 mm | - | 149 W/m² | - |
| 1777819622 | 23.89° C | 30% | 1090.5 hPa | 0 mm | - | 97 W/m² | - |
| 1777817821 | 23.33° C | 31% | 1089.7 hPa | 0 mm | - | 90 W/m² | - |
| 1777816021 | 22.78° C | 33% | 1089.9 hPa | 0 mm | - | 46 W/m² | - |
| 1777814220 | 22.22° C | 34% | 1089.3 hPa | 0 mm | - | 20 W/m² | - |
| 1777812420 | 21.67° C | 34% | 1089.2 hPa | 0 mm | - | 3 W/m² | - |
| 1777810616 | 21.67° C | 34% | 1089 hPa | 0 mm | - | 0 W/m² | - |
| 1777808811 | 21.67° C | 33% | 1089.2 hPa | 0 mm | - | 0 W/m² | - |
| 1777807006 | 22.22° C | 33% | 1089.1 hPa | 0 mm | - | 0 W/m² | - |
| 1777805205 | 22.22° C | 32% | 1088.9 hPa | 0 mm | - | 0 W/m² | - |
| 1777803404 | 22.78° C | 32% | 1088.9 hPa | 0 mm | - | 0 W/m² | - |
| 1777801601 | 23.33° C | 30% | 1089.1 hPa | 0 mm | - | 0 W/m² | - |
| 1777799797 | 23.33° C | 30% | 1088.9 hPa | 0 mm | - | 0 W/m² | - |
| 1777797992 | 23.89° C | 29% | 1089 hPa | 0 mm | - | 0 W/m² | - |
| 1777796189 | 23.89° C | 28% | 1088.9 hPa | 0 mm | - | 0 W/m² | - |
* Rain latest hour (hover to see other rain measurements)
** Current wind speed in m/s (hover to see current wind gust speed)